createdAt,value
2023-01-11T00:00:47.884Z,21.20
2023-01-11T00:03:17.642Z,21.00
2023-01-11T00:05:44.806Z,22.40
2023-01-11T00:08:12.362Z,21.20
2023-01-11T00:10:41.243Z,22.60
2023-01-11T00:13:07.943Z,22.50
2023-01-11T00:15:36.030Z,23.30
2023-01-11T00:18:03.441Z,23.10
2023-01-11T00:20:30.145Z,21.70
2023-01-11T00:22:57.848Z,20.70
2023-01-11T00:25:25.137Z,23.30
2023-01-11T00:27:54.064Z,22.20
2023-01-11T00:30:21.464Z,23.90
2023-01-11T00:32:48.187Z,22.90
2023-01-11T00:35:15.350Z,24.50
2023-01-11T00:37:42.375Z,22.60
2023-01-11T00:40:09.534Z,24.90
2023-01-11T00:42:54.662Z,24.40
2023-01-11T00:45:40.004Z,24.60
2023-01-11T00:48:07.237Z,23.90
2023-01-11T00:50:39.344Z,24.00
2023-01-11T00:53:08.127Z,24.60
2023-01-11T00:55:35.913Z,25.40
2023-01-11T00:58:03.423Z,25.80
2023-01-11T01:00:30.408Z,26.10
2023-01-11T01:02:57.631Z,25.50
2023-01-11T01:05:24.442Z,25.20
2023-01-11T01:07:54.159Z,23.10
2023-01-11T01:10:21.261Z,22.60
2023-01-11T01:13:06.810Z,23.60
2023-01-11T01:15:33.995Z,24.50
2023-01-11T01:18:00.923Z,25.40
2023-01-11T01:20:28.200Z,25.30
2023-01-11T01:22:55.242Z,24.70
2023-01-11T01:25:21.931Z,23.50
2023-01-11T01:27:48.850Z,23.60
2023-01-11T01:30:16.335Z,23.30
2023-01-11T01:32:43.010Z,22.40
2023-01-11T01:35:09.904Z,22.30
2023-01-11T01:37:37.503Z,23.50
2023-01-11T01:40:05.125Z,22.40
2023-01-11T01:42:32.061Z,22.00
2023-01-11T01:45:28.271Z,21.40
2023-01-11T01:48:01.012Z,22.60
2023-01-11T01:50:31.576Z,22.90
2023-01-11T01:53:05.061Z,22.30
2023-01-11T01:55:36.659Z,20.60
2023-01-11T01:58:08.958Z,21.10
2023-01-11T02:00:39.269Z,21.30
